sensor_id;sensor_type;location;lat;lon;timestamp;P1;durP1;ratioP1;P2;durP2;ratioP2
22922;SDS011;11627;51.322;22.816;2022-11-21T00:01:20;38.10;;;15.52;;
22922;SDS011;11627;51.322;22.816;2022-11-21T00:03:47;37.13;;;14.68;;
22922;SDS011;11627;51.322;22.816;2022-11-21T00:06:17;36.92;;;14.85;;
22922;SDS011;11627;51.322;22.816;2022-11-21T00:08:47;39.92;;;14.77;;
22922;SDS011;11627;51.322;22.816;2022-11-21T00:11:35;36.00;;;15.07;;
22922;SDS011;11627;51.322;22.816;2022-11-21T00:14:19;35.35;;;13.88;;
22922;SDS011;11627;51.322;22.816;2022-11-21T00:16:45;35.53;;;14.80;;
22922;SDS011;11627;51.322;22.816;2022-11-21T00:19:11;36.15;;;14.27;;
22922;SDS011;11627;51.322;22.816;2022-11-21T00:21:37;34.20;;;14.73;;
22922;SDS011;11627;51.322;22.816;2022-11-21T00:24:02;36.33;;;14.95;;
22922;SDS011;11627;51.322;22.816;2022-11-21T00:26:28;34.35;;;15.05;;
22922;SDS011;11627;51.322;22.816;2022-11-21T00:28:54;38.92;;;16.27;;
22922;SDS011;11627;51.322;22.816;2022-11-21T00:31:20;37.92;;;15.30;;
22922;SDS011;11627;51.322;22.816;2022-11-21T00:33:46;36.78;;;15.38;;
22922;SDS011;11627;51.322;22.816;2022-11-21T00:36:12;35.28;;;15.05;;
22922;SDS011;11627;51.322;22.816;2022-11-21T00:38:38;35.88;;;14.48;;
22922;SDS011;11627;51.322;22.816;2022-11-21T00:41:03;38.13;;;15.23;;
22922;SDS011;11627;51.322;22.816;2022-11-21T00:43:30;35.63;;;15.25;;
22922;SDS011;11627;51.322;22.816;2022-11-21T00:45:56;42.08;;;15.82;;
22922;SDS011;11627;51.322;22.816;2022-11-21T00:48:25;39.58;;;14.98;;
22922;SDS011;11627;51.322;22.816;2022-11-21T00:50:50;39.33;;;14.18;;
22922;SDS011;11627;51.322;22.816;2022-11-21T00:53:16;35.70;;;14.38;;
22922;SDS011;11627;51.322;22.816;2022-11-21T00:55:41;38.38;;;15.75;;
22922;SDS011;11627;51.322;22.816;2022-11-21T00:58:07;33.08;;;14.00;;
22922;SDS011;11627;51.322;22.816;2022-11-21T01:00:33;35.10;;;14.88;;
22922;SDS011;11627;51.322;22.816;2022-11-21T01:02:58;39.05;;;14.98;;
22922;SDS011;11627;51.322;22.816;2022-11-21T01:05:25;38.72;;;15.50;;
22922;SDS011;11627;51.322;22.816;2022-11-21T01:07:50;35.75;;;14.38;;
22922;SDS011;11627;51.322;22.816;2022-11-21T01:10:16;39.40;;;15.82;;
22922;SDS011;11627;51.322;22.816;2022-11-21T01:12:42;38.17;;;15.35;;
22922;SDS011;11627;51.322;22.816;2022-11-21T01:15:08;39.97;;;15.88;;
22922;SDS011;11627;51.322;22.816;2022-11-21T01:17:34;40.55;;;16.73;;
22922;SDS011;11627;51.322;22.816;2022-11-21T01:19:59;41.90;;;16.70;;
22922;SDS011;11627;51.322;22.816;2022-11-21T01:22:25;38.58;;;16.10;;
22922;SDS011;11627;51.322;22.816;2022-11-21T01:24:51;41.75;;;15.75;;
22922;SDS011;11627;51.322;22.816;2022-11-21T01:27:16;36.28;;;14.82;;
22922;SDS011;11627;51.322;22.816;2022-11-21T01:29:42;44.45;;;17.00;;
22922;SDS011;11627;51.322;22.816;2022-11-21T01:32:07;38.78;;;15.88;;
22922;SDS011;11627;51.322;22.816;2022-11-21T01:34:33;37.75;;;15.57;;
22922;SDS011;11627;51.322;22.816;2022-11-21T01:36:58;36.58;;;15.82;;
22922;SDS011;11627;51.322;22.816;2022-11-21T01:39:25;39.63;;;16.80;;
22922;SDS011;11627;51.322;22.816;2022-11-21T01:41:50;38.15;;;15.68;;
22922;SDS011;11627;51.322;22.816;2022-11-21T01:46:49;45.05;;;17.33;;
22922;SDS011;11627;51.322;22.816;2022-11-21T01:49:19;44.08;;;17.60;;
22922;SDS011;11627;51.322;22.816;2022-11-21T01:51:56;36.97;;;15.93;;
22922;SDS011;11627;51.322;22.816;2022-11-21T01:54:38;39.28;;;17.10;;
22922;SDS011;11627;51.322;22.816;2022-11-21T01:57:13;41.38;;;16.20;;
22922;SDS011;11627;51.322;22.816;2022-11-21T02:02:36;35.65;;;15.27;;
22922;SDS011;11627;51.322;22.816;2022-11-21T02:05:04;41.55;;;15.73;;
22922;SDS011;11627;51.322;22.816;2022-11-21T02:07:34;37.40;;;15.85;;
22922;SDS011;11627;51.322;22.816;2022-11-21T02:10:05;37.13;;;15.57;;
22922;SDS011;11627;51.322;22.816;2022-11-21T02:12:33;40.67;;;16.88;;
22922;SDS011;11627;51.322;22.816;2022-11-21T02:15:03;37.10;;;15.43;;
22922;SDS011;11627;51.322;22.816;2022-11-21T02:17:30;39.35;;;15.55;;
22922;SDS011;11627;51.322;22.816;2022-11-21T02:19:57;37.90;;;16.20;;
22922;SDS011;11627;51.322;22.816;2022-11-21T02:25:12;40.80;;;16.45;;
22922;SDS011;11627;51.322;22.816;2022-11-21T02:27:41;36.17;;;16.08;;
22922;SDS011;11627;51.322;22.816;2022-11-21T02:30:07;44.45;;;17.55;;
22922;SDS011;11627;51.322;22.816;2022-11-21T02:32:35;45.70;;;17.40;;
22922;SDS011;11627;51.322;22.816;2022-11-21T02:35:03;40.35;;;17.85;;
22922;SDS011;11627;51.322;22.816;2022-11-21T02:37:29;43.88;;;17.90;;
22922;SDS011;11627;51.322;22.816;2022-11-21T02:39:56;40.22;;;17.05;;
22922;SDS011;11627;51.322;22.816;2022-11-21T02:42:39;44.40;;;17.35;;
22922;SDS011;11627;51.322;22.816;2022-11-21T02:45:18;38.10;;;16.83;;
22922;SDS011;11627;51.322;22.816;2022-11-21T02:47:46;49.42;;;18.58;;
22922;SDS011;11627;51.322;22.816;2022-11-21T02:50:18;49.63;;;19.15;;
22922;SDS011;11627;51.322;22.816;2022-11-21T02:52:47;42.72;;;17.13;;
22922;SDS011;11627;51.322;22.816;2022-11-21T02:55:14;44.40;;;19.15;;
22922;SDS011;11627;51.322;22.816;2022-11-21T02:57:40;49.50;;;18.55;;
22922;SDS011;11627;51.322;22.816;2022-11-21T03:00:07;44.75;;;17.70;;
22922;SDS011;11627;51.322;22.816;2022-11-21T03:02:35;46.20;;;18.42;;
22922;SDS011;11627;51.322;22.816;2022-11-21T03:05:01;44.05;;;18.60;;
22922;SDS011;11627;51.322;22.816;2022-11-21T03:07:27;50.47;;;19.95;;
22922;SDS011;11627;51.322;22.816;2022-11-21T03:09:52;45.08;;;18.85;;
22922;SDS011;11627;51.322;22.816;2022-11-21T03:12:18;46.42;;;18.48;;
22922;SDS011;11627;51.322;22.816;2022-11-21T03:14:44;44.55;;;18.25;;
22922;SDS011;11627;51.322;22.816;2022-11-21T03:17:09;47.10;;;19.35;;
22922;SDS011;11627;51.322;22.816;2022-11-21T03:19:35;48.85;;;18.85;;
22922;SDS011;11627;51.322;22.816;2022-11-21T03:22:01;46.95;;;19.30;;
22922;SDS011;11627;51.322;22.816;2022-11-21T03:24:26;49.00;;;18.90;;
22922;SDS011;11627;51.322;22.816;2022-11-21T03:26:52;45.25;;;18.90;;
22922;SDS011;11627;51.322;22.816;2022-11-21T03:29:18;44.70;;;18.98;;
22922;SDS011;11627;51.322;22.816;2022-11-21T03:31:43;48.53;;;19.55;;
22922;SDS011;11627;51.322;22.816;2022-11-21T03:34:09;42.83;;;18.45;;
22922;SDS011;11627;51.322;22.816;2022-11-21T03:36:34;48.60;;;19.90;;
22922;SDS011;11627;51.322;22.816;2022-11-21T03:39:00;49.30;;;19.63;;
22922;SDS011;11627;51.322;22.816;2022-11-21T03:41:26;43.88;;;18.30;;
22922;SDS011;11627;51.322;22.816;2022-11-21T03:43:55;49.70;;;19.73;;
22922;SDS011;11627;51.322;22.816;2022-11-21T03:46:21;51.13;;;19.23;;
22922;SDS011;11627;51.322;22.816;2022-11-21T03:48:47;44.25;;;18.58;;
22922;SDS011;11627;51.322;22.816;2022-11-21T03:51:13;47.05;;;19.90;;
22922;SDS011;11627;51.322;22.816;2022-11-21T03:53:38;48.60;;;20.75;;
22922;SDS011;11627;51.322;22.816;2022-11-21T03:56:04;47.38;;;19.63;;
22922;SDS011;11627;51.322;22.816;2022-11-21T03:58:30;48.47;;;19.65;;
22922;SDS011;11627;51.322;22.816;2022-11-21T04:00:55;45.58;;;19.92;;
22922;SDS011;11627;51.322;22.816;2022-11-21T04:03:21;45.70;;;19.17;;
22922;SDS011;11627;51.322;22.816;2022-11-21T04:05:46;44.10;;;18.60;;
22922;SDS011;11627;51.322;22.816;2022-11-21T04:08:12;45.30;;;17.73;;
22922;SDS011;11627;51.322;22.816;2022-11-21T04:10:37;42.65;;;18.23;;
22922;SDS011;11627;51.322;22.816;2022-11-21T04:13:03;42.45;;;17.23;;
22922;SDS011;11627;51.322;22.816;2022-11-21T04:15:28;39.65;;;16.85;;
22922;SDS011;11627;51.322;22.816;2022-11-21T04:17:54;40.00;;;16.20;;
22922;SDS011;11627;51.322;22.816;2022-11-21T04:20:20;49.03;;;18.17;;
22922;SDS011;11627;51.322;22.816;2022-11-21T04:22:45;40.42;;;15.88;;
22922;SDS011;11627;51.322;22.816;2022-11-21T04:25:11;38.42;;;16.48;;
22922;SDS011;11627;51.322;22.816;2022-11-21T04:27:37;40.75;;;16.98;;
22922;SDS011;11627;51.322;22.816;2022-11-21T04:30:03;40.03;;;16.85;;
22922;SDS011;11627;51.322;22.816;2022-11-21T04:32:30;40.08;;;17.85;;
22922;SDS011;11627;51.322;22.816;2022-11-21T04:34:55;44.58;;;17.38;;
22922;SDS011;11627;51.322;22.816;2022-11-21T04:37:21;42.85;;;17.83;;
22922;SDS011;11627;51.322;22.816;2022-11-21T04:39:47;40.75;;;18.00;;
22922;SDS011;11627;51.322;22.816;2022-11-21T04:42:12;42.00;;;17.15;;
22922;SDS011;11627;51.322;22.816;2022-11-21T04:44:38;48.85;;;19.42;;
22922;SDS011;11627;51.322;22.816;2022-11-21T04:47:03;47.22;;;17.23;;
22922;SDS011;11627;51.322;22.816;2022-11-21T04:49:29;38.90;;;17.30;;
22922;SDS011;11627;51.322;22.816;2022-11-21T04:51:54;44.75;;;17.95;;
22922;SDS011;11627;51.322;22.816;2022-11-21T04:54:20;48.17;;;18.02;;
22922;SDS011;11627;51.322;22.816;2022-11-21T04:56:46;50.15;;;19.08;;
22922;SDS011;11627;51.322;22.816;2022-11-21T04:59:11;46.75;;;18.30;;
22922;SDS011;11627;51.322;22.816;2022-11-21T05:01:37;41.42;;;17.90;;
22922;SDS011;11627;51.322;22.816;2022-11-21T05:04:02;42.42;;;18.25;;
22922;SDS011;11627;51.322;22.816;2022-11-21T05:06:28;45.10;;;17.88;;
22922;SDS011;11627;51.322;22.816;2022-11-21T05:08:54;41.33;;;18.33;;
22922;SDS011;11627;51.322;22.816;2022-11-21T05:11:19;44.28;;;17.60;;
22922;SDS011;11627;51.322;22.816;2022-11-21T05:14:04;48.60;;;18.50;;
22922;SDS011;11627;51.322;22.816;2022-11-21T05:16:31;39.47;;;17.15;;
22922;SDS011;11627;51.322;22.816;2022-11-21T05:18:57;44.97;;;16.98;;
22922;SDS011;11627;51.322;22.816;2022-11-21T05:21:22;49.15;;;17.65;;
22922;SDS011;11627;51.322;22.816;2022-11-21T05:23:48;41.20;;;17.70;;
22922;SDS011;11627;51.322;22.816;2022-11-21T05:26:14;44.97;;;17.88;;
22922;SDS011;11627;51.322;22.816;2022-11-21T05:28:39;50.58;;;18.73;;
22922;SDS011;11627;51.322;22.816;2022-11-21T05:31:05;47.47;;;18.65;;
22922;SDS011;11627;51.322;22.816;2022-11-21T05:33:30;44.50;;;17.63;;
22922;SDS011;11627;51.322;22.816;2022-11-21T05:35:56;42.38;;;17.67;;
22922;SDS011;11627;51.322;22.816;2022-11-21T05:38:22;42.45;;;17.80;;
22922;SDS011;11627;51.322;22.816;2022-11-21T05:40:47;51.80;;;19.05;;
22922;SDS011;11627;51.322;22.816;2022-11-21T05:43:15;44.72;;;17.90;;
22922;SDS011;11627;51.322;22.816;2022-11-21T05:45:59;45.42;;;17.88;;
22922;SDS011;11627;51.322;22.816;2022-11-21T05:48:25;46.42;;;18.95;;
22922;SDS011;11627;51.322;22.816;2022-11-21T05:50:50;50.53;;;19.83;;
22922;SDS011;11627;51.322;22.816;2022-11-21T05:53:16;53.67;;;20.17;;
22922;SDS011;11627;51.322;22.816;2022-11-21T05:55:42;50.00;;;17.85;;
22922;SDS011;11627;51.322;22.816;2022-11-21T05:58:08;49.67;;;20.25;;
22922;SDS011;11627;51.322;22.816;2022-11-21T06:00:35;50.55;;;19.10;;
22922;SDS011;11627;51.322;22.816;2022-11-21T06:03:01;51.50;;;19.60;;
22922;SDS011;11627;51.322;22.816;2022-11-21T06:05:45;60.45;;;21.40;;
22922;SDS011;11627;51.322;22.816;2022-11-21T06:08:11;56.90;;;19.63;;
22922;SDS011;11627;51.322;22.816;2022-11-21T06:10:36;53.95;;;20.05;;
22922;SDS011;11627;51.322;22.816;2022-11-21T06:13:02;51.50;;;18.77;;
22922;SDS011;11627;51.322;22.816;2022-11-21T06:15:28;50.05;;;19.38;;
22922;SDS011;11627;51.322;22.816;2022-11-21T06:17:54;45.90;;;19.30;;
22922;SDS011;11627;51.322;22.816;2022-11-21T06:20:20;50.25;;;19.27;;
22922;SDS011;11627;51.322;22.816;2022-11-21T06:22:45;56.78;;;19.73;;
22922;SDS011;11627;51.322;22.816;2022-11-21T06:25:11;54.95;;;20.17;;
22922;SDS011;11627;51.322;22.816;2022-11-21T06:27:36;51.90;;;19.30;;
22922;SDS011;11627;51.322;22.816;2022-11-21T06:30:02;51.80;;;20.05;;
22922;SDS011;11627;51.322;22.816;2022-11-21T06:32:28;46.75;;;19.05;;
22922;SDS011;11627;51.322;22.816;2022-11-21T06:34:54;47.22;;;19.45;;
22922;SDS011;11627;51.322;22.816;2022-11-21T06:37:19;53.92;;;19.95;;
22922;SDS011;11627;51.322;22.816;2022-11-21T06:39:45;58.03;;;20.17;;
22922;SDS011;11627;51.322;22.816;2022-11-21T06:42:10;48.40;;;19.73;;
22922;SDS011;11627;51.322;22.816;2022-11-21T06:44:36;52.03;;;20.25;;
22922;SDS011;11627;51.322;22.816;2022-11-21T06:47:02;52.70;;;20.30;;
22922;SDS011;11627;51.322;22.816;2022-11-21T06:49:27;53.22;;;19.73;;
22922;SDS011;11627;51.322;22.816;2022-11-21T06:51:53;50.28;;;19.35;;
22922;SDS011;11627;51.322;22.816;2022-11-21T06:54:18;53.70;;;19.23;;
22922;SDS011;11627;51.322;22.816;2022-11-21T06:56:44;58.63;;;20.25;;
22922;SDS011;11627;51.322;22.816;2022-11-21T06:59:10;54.10;;;18.70;;
22922;SDS011;11627;51.322;22.816;2022-11-21T07:01:35;52.10;;;19.17;;
22922;SDS011;11627;51.322;22.816;2022-11-21T07:04:01;49.67;;;18.40;;
22922;SDS011;11627;51.322;22.816;2022-11-21T07:06:26;53.88;;;19.95;;
22922;SDS011;11627;51.322;22.816;2022-11-21T07:08:52;51.08;;;19.25;;
22922;SDS011;11627;51.322;22.816;2022-11-21T07:11:18;52.13;;;18.92;;
22922;SDS011;11627;51.322;22.816;2022-11-21T07:13:44;53.70;;;20.35;;
22922;SDS011;11627;51.322;22.816;2022-11-21T07:16:10;48.30;;;18.35;;
22922;SDS011;11627;51.322;22.816;2022-11-21T07:18:38;47.30;;;17.83;;
22922;SDS011;11627;51.322;22.816;2022-11-21T07:21:05;43.50;;;17.23;;
22922;SDS011;11627;51.322;22.816;2022-11-21T07:23:31;43.97;;;17.05;;
22922;SDS011;11627;51.322;22.816;2022-11-21T07:25:58;47.30;;;17.88;;
22922;SDS011;11627;51.322;22.816;2022-11-21T07:28:26;46.67;;;18.10;;
22922;SDS011;11627;51.322;22.816;2022-11-21T07:30:55;40.83;;;16.73;;
22922;SDS011;11627;51.322;22.816;2022-11-21T07:33:21;44.72;;;16.52;;
22922;SDS011;11627;51.322;22.816;2022-11-21T07:35:47;39.03;;;15.95;;
22922;SDS011;11627;51.322;22.816;2022-11-21T07:38:13;43.20;;;16.55;;
22922;SDS011;11627;51.322;22.816;2022-11-21T07:40:38;43.17;;;16.65;;
22922;SDS011;11627;51.322;22.816;2022-11-21T07:43:04;44.45;;;17.55;;
22922;SDS011;11627;51.322;22.816;2022-11-21T07:45:31;57.50;;;21.67;;
22922;SDS011;11627;51.322;22.816;2022-11-21T07:48:01;73.75;;;26.90;;
22922;SDS011;11627;51.322;22.816;2022-11-21T07:50:28;62.72;;;27.00;;
22922;SDS011;11627;51.322;22.816;2022-11-21T07:55:24;41.13;;;17.95;;
22922;SDS011;11627;51.322;22.816;2022-11-21T07:57:58;48.70;;;18.92;;
22922;SDS011;11627;51.322;22.816;2022-11-21T08:00:24;42.05;;;18.25;;
22922;SDS011;11627;51.322;22.816;2022-11-21T08:02:51;48.55;;;17.75;;
22922;SDS011;11627;51.322;22.816;2022-11-21T08:05:16;42.75;;;18.25;;
22922;SDS011;11627;51.322;22.816;2022-11-21T08:07:42;47.25;;;18.67;;
22922;SDS011;11627;51.322;22.816;2022-11-21T08:10:08;48.20;;;18.50;;
22922;SDS011;11627;51.322;22.816;2022-11-21T08:12:33;44.58;;;17.92;;
22922;SDS011;11627;51.322;22.816;2022-11-21T08:14:59;42.03;;;17.98;;
22922;SDS011;11627;51.322;22.816;2022-11-21T08:17:25;44.33;;;18.55;;
22922;SDS011;11627;51.322;22.816;2022-11-21T08:19:51;46.67;;;18.08;;
22922;SDS011;11627;51.322;22.816;2022-11-21T08:22:16;43.63;;;17.70;;
22922;SDS011;11627;51.322;22.816;2022-11-21T08:24:42;47.03;;;19.40;;
22922;SDS011;11627;51.322;22.816;2022-11-21T08:27:07;46.03;;;17.83;;
22922;SDS011;11627;51.322;22.816;2022-11-21T08:29:33;45.08;;;19.08;;
22922;SDS011;11627;51.322;22.816;2022-11-21T08:31:59;43.45;;;17.30;;
22922;SDS011;11627;51.322;22.816;2022-11-21T08:34:25;47.22;;;17.63;;
22922;SDS011;11627;51.322;22.816;2022-11-21T08:36:50;42.65;;;18.25;;
22922;SDS011;11627;51.322;22.816;2022-11-21T08:39:17;48.78;;;18.75;;
22922;SDS011;11627;51.322;22.816;2022-11-21T08:41:43;40.70;;;17.80;;
22922;SDS011;11627;51.322;22.816;2022-11-21T08:44:26;42.15;;;17.50;;
22922;SDS011;11627;51.322;22.816;2022-11-21T08:46:53;44.00;;;17.83;;
22922;SDS011;11627;51.322;22.816;2022-11-21T08:49:19;45.65;;;17.67;;
22922;SDS011;11627;51.322;22.816;2022-11-21T08:51:45;45.78;;;18.33;;
22922;SDS011;11627;51.322;22.816;2022-11-21T08:54:15;47.58;;;18.15;;
22922;SDS011;11627;51.322;22.816;2022-11-21T08:56:44;39.08;;;17.48;;
22922;SDS011;11627;51.322;22.816;2022-11-21T08:59:10;42.83;;;17.88;;
22922;SDS011;11627;51.322;22.816;2022-11-21T09:01:36;45.92;;;18.02;;
22922;SDS011;11627;51.322;22.816;2022-11-21T09:04:02;41.45;;;17.73;;
22922;SDS011;11627;51.322;22.816;2022-11-21T09:06:29;43.50;;;18.48;;
22922;SDS011;11627;51.322;22.816;2022-11-21T09:08:55;47.33;;;18.30;;
22922;SDS011;11627;51.322;22.816;2022-11-21T09:11:20;44.15;;;18.33;;
22922;SDS011;11627;51.322;22.816;2022-11-21T09:13:46;40.78;;;17.77;;
22922;SDS011;11627;51.322;22.816;2022-11-21T09:16:35;49.22;;;17.88;;
22922;SDS011;11627;51.322;22.816;2022-11-21T09:19:19;37.78;;;16.23;;
22922;SDS011;11627;51.322;22.816;2022-11-21T09:21:49;40.47;;;16.98;;
22922;SDS011;11627;51.322;22.816;2022-11-21T09:24:15;38.75;;;17.15;;
22922;SDS011;11627;51.322;22.816;2022-11-21T09:26:41;43.47;;;17.20;;
22922;SDS011;11627;51.322;22.816;2022-11-21T09:29:07;43.25;;;17.20;;
22922;SDS011;11627;51.322;22.816;2022-11-21T09:31:38;44.78;;;17.70;;
22922;SDS011;11627;51.322;22.816;2022-11-21T09:34:14;44.88;;;17.65;;
22922;SDS011;11627;51.322;22.816;2022-11-21T09:40:24;38.40;;;16.55;;
22922;SDS011;11627;51.322;22.816;2022-11-21T09:46:05;41.40;;;16.92;;
22922;SDS011;11627;51.322;22.816;2022-11-21T09:48:42;39.63;;;16.77;;
22922;SDS011;11627;51.322;22.816;2022-11-21T09:55:16;40.30;;;17.30;;
22922;SDS011;11627;51.322;22.816;2022-11-21T10:04:33;44.72;;;17.58;;
22922;SDS011;11627;51.322;22.816;2022-11-21T10:07:25;39.70;;;17.98;;
22922;SDS011;11627;51.322;22.816;2022-11-21T10:13:14;40.38;;;17.15;;
22922;SDS011;11627;51.322;22.816;2022-11-21T10:31:34;40.65;;;16.88;;
22922;SDS011;11627;51.322;22.816;2022-11-21T10:34:16;39.35;;;18.10;;
22922;SDS011;11627;51.322;22.816;2022-11-21T10:37:06;44.90;;;18.98;;
22922;SDS011;11627;51.322;22.816;2022-11-21T10:43:59;38.00;;;17.10;;
22922;SDS011;11627;51.322;22.816;2022-11-21T10:47:11;44.15;;;18.88;;
22922;SDS011;11627;51.322;22.816;2022-11-21T10:49:52;42.97;;;18.67;;
22922;SDS011;11627;51.322;22.816;2022-11-21T10:56:24;41.83;;;18.38;;
22922;SDS011;11627;51.322;22.816;2022-11-21T10:59:36;40.75;;;17.52;;
22922;SDS011;11627;51.322;22.816;2022-11-21T12:42:35;39.28;;;17.65;;
22922;SDS011;11627;51.322;22.816;2022-11-21T13:04:12;38.60;;;17.58;;
22922;SDS011;11627;51.322;22.816;2022-11-21T13:09:42;40.50;;;18.25;;
22922;SDS011;11627;51.322;22.816;2022-11-21T13:12:54;40.47;;;17.05;;
22922;SDS011;11627;51.322;22.816;2022-11-21T13:16:24;35.35;;;16.40;;
22922;SDS011;11627;51.322;22.816;2022-11-21T13:22:01;37.88;;;17.10;;
22922;SDS011;11627;51.322;22.816;2022-11-21T13:25:14;42.05;;;18.23;;
22922;SDS011;11627;51.322;22.816;2022-11-21T13:27:35;38.83;;;17.88;;
22922;SDS011;11627;51.322;22.816;2022-11-21T13:39:50;37.17;;;16.45;;
22922;SDS011;11627;51.322;22.816;2022-11-21T13:43:08;33.03;;;14.68;;
22922;SDS011;11627;51.322;22.816;2022-11-21T13:45:48;36.78;;;15.98;;
22922;SDS011;11627;51.322;22.816;2022-11-21T14:08:43;54.80;;;24.02;;
22922;SDS011;11627;51.322;22.816;2022-11-21T14:12:05;51.40;;;21.67;;
22922;SDS011;11627;51.322;22.816;2022-11-21T14:20:23;43.28;;;18.88;;
22922;SDS011;11627;51.322;22.816;2022-11-21T14:22:55;50.63;;;21.20;;
22922;SDS011;11627;51.322;22.816;2022-11-21T14:25:43;47.08;;;20.63;;
22922;SDS011;11627;51.322;22.816;2022-11-21T14:28:24;49.85;;;20.23;;
22922;SDS011;11627;51.322;22.816;2022-11-21T14:30:56;51.65;;;21.40;;
22922;SDS011;11627;51.322;22.816;2022-11-21T14:33:34;50.55;;;20.48;;
22922;SDS011;11627;51.322;22.816;2022-11-21T14:38:39;45.53;;;19.30;;
22922;SDS011;11627;51.322;22.816;2022-11-21T14:47:07;39.25;;;17.38;;
22922;SDS011;11627;51.322;22.816;2022-11-21T14:49:38;41.97;;;17.38;;
22922;SDS011;11627;51.322;22.816;2022-11-21T14:52:21;39.30;;;16.80;;
22922;SDS011;11627;51.322;22.816;2022-11-21T14:55:01;37.05;;;16.15;;
22922;SDS011;11627;51.322;22.816;2022-11-21T14:57:37;35.35;;;15.85;;
22922;SDS011;11627;51.322;22.816;2022-11-21T15:00:07;41.47;;;17.17;;
22922;SDS011;11627;51.322;22.816;2022-11-21T15:02:37;39.10;;;17.25;;
22922;SDS011;11627;51.322;22.816;2022-11-21T15:05:06;41.80;;;17.52;;
22922;SDS011;11627;51.322;22.816;2022-11-21T15:07:39;40.58;;;17.35;;
22922;SDS011;11627;51.322;22.816;2022-11-21T15:10:10;43.08;;;17.17;;
22922;SDS011;11627;51.322;22.816;2022-11-21T15:13:04;37.15;;;16.48;;
22922;SDS011;11627;51.322;22.816;2022-11-21T15:15:34;38.97;;;17.17;;
22922;SDS011;11627;51.322;22.816;2022-11-21T15:18:05;40.40;;;18.00;;
22922;SDS011;11627;51.322;22.816;2022-11-21T15:20:36;45.78;;;17.17;;
22922;SDS011;11627;51.322;22.816;2022-11-21T15:23:03;41.10;;;16.95;;
22922;SDS011;11627;51.322;22.816;2022-11-21T15:25:42;39.17;;;15.80;;
22922;SDS011;11627;51.322;22.816;2022-11-21T15:28:14;40.88;;;17.15;;
22922;SDS011;11627;51.322;22.816;2022-11-21T15:30:43;38.00;;;17.10;;
22922;SDS011;11627;51.322;22.816;2022-11-21T15:33:19;44.47;;;18.48;;
22922;SDS011;11627;51.322;22.816;2022-11-21T15:35:54;42.00;;;19.17;;
22922;SDS011;11627;51.322;22.816;2022-11-21T15:38:30;40.83;;;18.75;;
22922;SDS011;11627;51.322;22.816;2022-11-21T15:46:22;31.98;;;14.93;;
22922;SDS011;11627;51.322;22.816;2022-11-21T15:49:03;39.00;;;15.23;;
22922;SDS011;11627;51.322;22.816;2022-11-21T15:51:44;55.70;;;23.13;;
22922;SDS011;11627;51.322;22.816;2022-11-21T15:54:17;52.20;;;21.77;;
22922;SDS011;11627;51.322;22.816;2022-11-21T15:56:45;65.05;;;21.65;;
22922;SDS011;11627;51.322;22.816;2022-11-21T15:59:13;44.17;;;18.25;;
22922;SDS011;11627;51.322;22.816;2022-11-21T16:01:44;41.47;;;17.42;;
22922;SDS011;11627;51.322;22.816;2022-11-21T16:04:12;47.80;;;20.30;;
22922;SDS011;11627;51.322;22.816;2022-11-21T16:06:39;35.60;;;16.48;;
22922;SDS011;11627;51.322;22.816;2022-11-21T16:09:06;34.03;;;14.85;;
22922;SDS011;11627;51.322;22.816;2022-11-21T16:11:34;31.85;;;14.18;;
22922;SDS011;11627;51.322;22.816;2022-11-21T16:14:03;32.00;;;14.02;;
22922;SDS011;11627;51.322;22.816;2022-11-21T16:16:32;40.67;;;17.15;;
22922;SDS011;11627;51.322;22.816;2022-11-21T16:19:02;36.83;;;15.82;;
22922;SDS011;11627;51.322;22.816;2022-11-21T16:21:29;30.75;;;14.18;;
22922;SDS011;11627;51.322;22.816;2022-11-21T16:23:58;38.88;;;16.38;;
22922;SDS011;11627;51.322;22.816;2022-11-21T16:26:24;35.63;;;15.57;;
22922;SDS011;11627;51.322;22.816;2022-11-21T16:28:54;35.70;;;15.20;;
22922;SDS011;11627;51.322;22.816;2022-11-21T16:31:24;39.10;;;15.68;;
22922;SDS011;11627;51.322;22.816;2022-11-21T16:33:55;38.78;;;15.55;;
22922;SDS011;11627;51.322;22.816;2022-11-21T16:36:24;40.85;;;15.35;;
22922;SDS011;11627;51.322;22.816;2022-11-21T16:38:54;34.75;;;14.48;;
22922;SDS011;11627;51.322;22.816;2022-11-21T16:41:23;41.75;;;15.85;;
22922;SDS011;11627;51.322;22.816;2022-11-21T16:43:51;40.58;;;15.10;;
22922;SDS011;11627;51.322;22.816;2022-11-21T16:46:20;32.47;;;14.02;;
22922;SDS011;11627;51.322;22.816;2022-11-21T16:48:49;32.78;;;13.98;;
22922;SDS011;11627;51.322;22.816;2022-11-21T16:51:27;31.27;;;12.73;;
22922;SDS011;11627;51.322;22.816;2022-11-21T16:53:55;32.92;;;13.75;;
22922;SDS011;11627;51.322;22.816;2022-11-21T16:56:23;32.72;;;13.85;;
22922;SDS011;11627;51.322;22.816;2022-11-21T16:58:50;28.33;;;12.80;;
22922;SDS011;11627;51.322;22.816;2022-11-21T17:01:19;35.22;;;13.77;;
22922;SDS011;11627;51.322;22.816;2022-11-21T17:03:47;33.88;;;14.55;;
22922;SDS011;11627;51.322;22.816;2022-11-21T17:06:22;36.92;;;15.13;;
22922;SDS011;11627;51.322;22.816;2022-11-21T17:08:57;33.15;;;14.68;;
22922;SDS011;11627;51.322;22.816;2022-11-21T17:11:27;33.30;;;13.65;;
22922;SDS011;11627;51.322;22.816;2022-11-21T17:14:01;34.67;;;14.05;;
22922;SDS011;11627;51.322;22.816;2022-11-21T17:16:30;35.20;;;14.32;;
22922;SDS011;11627;51.322;22.816;2022-11-21T17:18:58;34.67;;;14.43;;
22922;SDS011;11627;51.322;22.816;2022-11-21T17:21:27;38.35;;;15.10;;
22922;SDS011;11627;51.322;22.816;2022-11-21T17:23:54;34.10;;;14.43;;
22922;SDS011;11627;51.322;22.816;2022-11-21T17:26:22;35.70;;;15.85;;
22922;SDS011;11627;51.322;22.816;2022-11-21T17:28:51;39.13;;;17.20;;
22922;SDS011;11627;51.322;22.816;2022-11-21T17:31:20;34.38;;;14.57;;
22922;SDS011;11627;51.322;22.816;2022-11-21T17:33:48;41.33;;;15.35;;
22922;SDS011;11627;51.322;22.816;2022-11-21T17:36:21;39.10;;;15.63;;
22922;SDS011;11627;51.322;22.816;2022-11-21T17:38:50;34.75;;;15.45;;
22922;SDS011;11627;51.322;22.816;2022-11-21T17:41:18;36.83;;;16.35;;
22922;SDS011;11627;51.322;22.816;2022-11-21T17:43:46;45.33;;;18.55;;
22922;SDS011;11627;51.322;22.816;2022-11-21T17:46:15;49.58;;;20.85;;
22922;SDS011;11627;51.322;22.816;2022-11-21T17:48:47;41.55;;;18.48;;
22922;SDS011;11627;51.322;22.816;2022-11-21T17:51:16;44.17;;;16.00;;
22922;SDS011;11627;51.322;22.816;2022-11-21T17:53:45;39.25;;;16.35;;
22922;SDS011;11627;51.322;22.816;2022-11-21T17:56:17;45.67;;;18.40;;
22922;SDS011;11627;51.322;22.816;2022-11-21T17:58:44;49.05;;;17.60;;
22922;SDS011;11627;51.322;22.816;2022-11-21T18:01:11;45.85;;;18.75;;
22922;SDS011;11627;51.322;22.816;2022-11-21T18:03:47;56.65;;;22.35;;
22922;SDS011;11627;51.322;22.816;2022-11-21T18:06:19;74.78;;;27.67;;
22922;SDS011;11627;51.322;22.816;2022-11-21T18:08:47;77.43;;;25.70;;
22922;SDS011;11627;51.322;22.816;2022-11-21T18:11:15;46.65;;;18.52;;
22922;SDS011;11627;51.322;22.816;2022-11-21T18:13:49;51.33;;;19.17;;